Time;durP1;ratioP1;P1;durP2;ratioP2;P2;SDS_P1;SDS_P2;PMS_P1;PMS_P2;Temp;Humidity;BMP_temperature;BMP_pressure;BME280_temperature;BME280_humidity;BME280_pressure;Samples;Min_cycle;Max_cycle;Signal;HPM_P1;HPM_P2
2021/12/13 15:39:07;;;;;;;;;;;;;;;;;;5129196;27;1368;-70
2021/12/13 15:41:32;;;;;;;;;;;;;;;;;;5129168;28;1182;-71
2021/12/13 15:43:57;;;;;;;;;;;;;;;;;;5126873;27;2342;-72
2021/12/13 15:46:22;;;;;;;;;;;;;;;;;;5128906;28;2304;-72
2021/12/13 15:51:31;;;;;;;;;;;;;;;;;;5128634;28;1028;-73
2021/12/13 15:53:56;;;;;;;;;;;;;;;;;;5129602;27;1155;-72
2021/12/13 15:56:21;;;;;;;;;;;;;;;;;;5129523;28;1115;-70
2021/12/13 15:58:46;;;;;;;;;;;;;;;;;;5129062;28;1988;-69
2021/12/13 16:01:11;;;;;;;;;;;;;;;;;;5129250;28;1118;-71
2021/12/13 16:03:36;;;;;;;;;;;;;;;;;;5128522;28;1218;-71
2021/12/13 16:06:02;;;;;;;;;;;;;;;;;;5128826;28;1159;-70
2021/12/13 16:08:27;;;;;;;;;;;;;;;;;;5128787;27;1134;-72
2021/12/13 16:10:52;;;;;;;;;;;;;;;;;;5128886;28;1111;-76
2021/12/13 16:13:17;;;;;;;;;;;;;;;;;;5128958;28;1233;-74
2021/12/13 16:15:42;;;;;;;;;;;;;;;;;;5128656;28;1237;-74
2021/12/13 16:18:07;;;;;;;;;;;;;;;;;;5128806;28;1874;-73
2021/12/13 16:20:32;;;;;;;;;;;;;;;;;;5128850;27;1138;-73
2021/12/13 16:22:58;;;;;;;;;;;;;;;;;;5129005;27;1163;-73
2021/12/13 16:25:23;;;;;;;;;;;;;;;;;;5128200;28;1107;-73
2021/12/13 16:27:48;;;;;;;;;;;;;;;;;;5110092;28;1115;-73
2021/12/13 16:30:13;;;;;;;;;;;;;;;;;;5128488;28;1154;-73
2021/12/13 16:32:38;;;;;;;;;;;;;;;;;;5127827;28;1175;-72
2021/12/13 16:35:03;;;;;;;;;;;;;;;;;;5128379;28;1232;-73
2021/12/13 16:37:28;;;;;;;;;;;;;;;;;;5121272;28;1906;-74
2021/12/13 16:39:53;;;;;;;;;;;;;;;;;;5106795;28;1060;-74
2021/12/13 16:42:18;;;;;;;;;;;;;;;;;;5107633;28;1179;-76
2021/12/13 16:44:45;;;;;;;;;;;;;;;;;;5103878;28;2365;-77
2021/12/13 16:47:10;;;;;;;;;;;;;;;;;;5106248;28;2409;-76
2021/12/13 16:49:35;;;;;;;;;;;;;;;;;;5099081;28;1111;-75
2021/12/13 16:52:00;;;;;;;;;;;;;;;;;;5093491;28;1254;-76
2021/12/13 16:54:25;;;;;;;;;;;;;;;;;;5093859;28;1155;-76
2021/12/13 16:56:50;;;;;;;;;;;;;;;;;;5093913;28;1906;-76
2021/12/13 16:59:15;;;;;;;;;;;;;;;;;;5093994;28;1131;-76
2021/12/13 17:01:40;;;;;;;;;;;;;;;;;;5093651;28;1072;-77
2021/12/13 17:04:05;;;;;;;;;;;;;;;;;;5093886;28;1317;-76
2021/12/13 17:06:31;;;;;;;;;;;;;;;;;;5093291;28;1238;-77
2021/12/13 17:08:57;;;;;;;;;;;;;;;;;;5093745;28;1243;-75
2021/12/13 17:11:23;;;;;;;;;;;;;;;;;;5093157;28;1001;-74
2021/12/13 17:13:49;;;;;;;;;;;;;;;;;;5093555;28;1163;-74
2021/12/13 17:16:14;;;;;;;;;;;;;;;;;;5093058;28;1222;-75
2021/12/13 17:18:39;;;;;;;;;;;;;;;;;;5093163;28;2205;-75
2021/12/13 17:21:04;;;;;;;;;;;;;;;;;;5092864;28;1230;-74
2021/12/13 17:23:32;;;;;;;;;;;;;;;;;;5093533;28;1250;-75
2021/12/13 17:25:57;;;;;;;;;;;;;;;;;;5093034;28;2051;-75
2021/12/13 17:28:22;;;;;;;;;;;;;;;;;;5093420;28;1269;-77
2021/12/13 17:30:47;;;;;;;;;;;;;;;;;;5092981;28;1317;-75
2021/12/13 17:33:12;;;;;;;;;;;;;;;;;;5093466;28;1258;-74
2021/12/13 17:35:37;;;;;;;;;;;;;;;;;;5092726;28;1222;-75
2021/12/13 17:38:02;;;;;;;;;;;;;;;;;;5092915;28;2000;-75
2021/12/13 17:40:27;;;;;;;;;;;;;;;;;;5093106;28;1168;-75
2021/12/13 17:42:54;;;;;;;;;;;;;;;;;;5093063;28;1191;-76
2021/12/13 17:45:19;;;;;;;;;;;;;;;;;;5091162;28;2128;-74
2021/12/13 17:47:44;;;;;;;;;;;;;;;;;;5091609;28;2239;-75
2021/12/13 17:50:09;;;;;;;;;;;;;;;;;;5092831;28;1256;-76
2021/12/13 17:52:34;;;;;;;;;;;;;;;;;;5092428;28;1157;-74
2021/12/13 17:55:00;;;;;;;;;;;;;;;;;;5092461;28;1068;-75
2021/12/13 17:57:25;;;;;;;;;;;;;;;;;;5092885;28;1902;-76
2021/12/13 17:59:50;;;;;;;;;;;;;;;;;;5092737;28;1194;-74
2021/12/13 18:02:16;;;;;;;;;;;;;;;;;;5091634;28;1179;-75
2021/12/13 18:04:43;;;;;;;;;;;;;;;;;;5092038;28;1028;-77
2021/12/13 18:07:08;;;;;;;;;;;;;;;;;;5092507;28;1080;-75
2021/12/13 18:09:33;;;;;;;;;;;;;;;;;;5092437;28;1135;-75
2021/12/13 18:11:58;;;;;;;;;;;;;;;;;;5092654;28;1261;-76
2021/12/13 18:14:23;;;;;;;;;;;;;;;;;;5092382;28;1218;-76
2021/12/13 18:16:48;;;;;;;;;;;;;;;;;;5092438;28;1961;-76
2021/12/13 18:19:13;;;;;;;;;;;;;;;;;;5092015;28;1219;-76
2021/12/13 18:21:38;;;;;;;;;;;;;;;;;;5091902;28;1354;-75
2021/12/13 18:24:03;;;;;;;;;;;;;;;;;;5092324;28;1306;-77
2021/12/13 18:26:28;;;;;;;;;;;;;;;;;;5092147;28;1162;-76
2021/12/13 18:28:57;;;;;;;;;;;;;;;;;;5091951;28;1234;-73
2021/12/13 18:31:22;;;;;;;;;;;;;;;;;;5091758;28;1218;-74
2021/12/13 18:33:47;;;;;;;;;;;;;;;;;;5091946;28;1171;-73
2021/12/13 18:36:13;;;;;;;;;;;;;;;;;;5091722;28;1247;-75
2021/12/13 18:38:38;;;;;;;;;;;;;;;;;;5090863;28;1913;-74
2021/12/13 18:41:03;;;;;;;;;;;;;;;;;;5091839;28;1183;-75
2021/12/13 18:43:34;;;;;;;;;;;;;;;;;;5092004;28;1238;-75
2021/12/13 18:45:59;;;;;;;;;;;;;;;;;;5090470;28;2346;-74
2021/12/13 18:48:25;;;;;;;;;;;;;;;;;;5090020;28;2472;-75
2021/12/13 18:50:50;;;;;;;;;;;;;;;;;;5091480;28;1167;-79
2021/12/13 18:53:16;;;;;;;;;;;;;;;;;;5093936;28;1171;-80
2021/12/13 18:55:41;;;;;;;;;;;;;;;;;;5074969;28;1128;-84
2021/12/13 18:58:06;;;;;;;;;;;;;;;;;;5093090;28;1219;-83
2021/12/13 19:00:40;;;;;;;;;;;;;;;;;;5093916;28;1324;-86
2021/12/13 19:03:11;;;;;;;;;;;;;;;;;;5077607;28;1516;-83
2021/12/13 19:05:45;;;;;;;;;;;;;;;;;;5095025;28;1127;-89
2021/12/13 19:08:11;;;;;;;;;;;;;;;;;;5093270;28;1902;-85
2021/12/13 19:13:23;;;;;;;;;;;;;;;;;;5091771;28;1008;-86
2021/12/13 19:15:48;;;;;;;;;;;;;;;;;;5073757;28;1064;-85
2021/12/13 19:18:13;;;;;;;;;;;;;;;;;;5074610;28;1218;-83
2021/12/13 19:20:38;;;;;;;;;;;;;;;;;;5074737;28;1269;-81
2021/12/13 19:23:03;;;;;;;;;;;;;;;;;;5074343;28;1108;-81
2021/12/13 19:25:28;;;;;;;;;;;;;;;;;;5074671;28;1287;-81
2021/12/13 19:27:57;;;;;;;;;;;;;;;;;;5092947;28;1933;-83
